createdAt,value
2019-03-04T00:02:14.731Z,23.20
2019-03-04T00:04:44.739Z,23.10
2019-03-04T00:07:24.360Z,23.10
2019-03-04T00:09:55.228Z,23.00
2019-03-04T00:12:25.509Z,22.90
2019-03-04T00:15:01.070Z,22.90
2019-03-04T00:17:33.330Z,22.80
2019-03-04T00:20:06.257Z,22.80
2019-03-04T00:22:38.187Z,22.80
2019-03-04T00:25:11.024Z,22.80
2019-03-04T00:27:43.912Z,22.70
2019-03-04T00:30:15.583Z,22.70
2019-03-04T00:33:02.517Z,22.60
2019-03-04T00:35:44.126Z,22.60
2019-03-04T00:38:15.487Z,22.60
2019-03-04T00:40:45.926Z,22.60
2019-03-04T00:43:27.573Z,22.60
2019-03-04T00:46:15.210Z,22.50
2019-03-04T00:48:45.202Z,22.40
2019-03-04T00:51:20.592Z,22.40
2019-03-04T00:53:52.437Z,22.40
2019-03-04T00:56:24.952Z,22.40
2019-03-04T00:58:55.731Z,22.40
2019-03-04T01:01:33.369Z,22.40
2019-03-04T01:04:07.858Z,22.30
2019-03-04T01:06:38.084Z,22.30
2019-03-04T01:09:11.001Z,22.30
2019-03-04T01:11:43.380Z,22.30
2019-03-04T01:14:17.776Z,22.30
2019-03-04T01:16:49.097Z,22.30
2019-03-04T01:19:19.973Z,22.20
2019-03-04T01:21:51.727Z,22.30
2019-03-04T01:24:22.568Z,22.20
2019-03-04T01:26:52.258Z,22.20
2019-03-04T01:29:22.289Z,22.20
2019-03-04T01:31:56.619Z,22.20
2019-03-04T01:34:26.044Z,22.20
2019-03-04T01:37:00.311Z,22.20
2019-03-04T01:39:30.031Z,22.20
2019-03-04T01:42:07.543Z,22.10
2019-03-04T01:44:38.693Z,22.10
2019-03-04T01:47:28.134Z,22.10
2019-03-04T01:50:06.586Z,22.10
2019-03-04T01:52:41.097Z,22.00
2019-03-04T01:55:12.059Z,22.00
2019-03-04T01:57:41.578Z,22.00
2019-03-04T02:00:15.685Z,22.00
2019-03-04T02:02:48.967Z,22.00
2019-03-04T02:05:19.542Z,22.00
2019-03-04T02:07:51.075Z,21.90
2019-03-04T02:10:23.444Z,21.90
2019-03-04T02:12:58.144Z,21.90
2019-03-04T02:15:29.748Z,21.90
2019-03-04T02:18:01.099Z,21.90
2019-03-04T02:20:52.148Z,21.90
2019-03-04T02:23:25.731Z,21.90
2019-03-04T02:26:33.254Z,21.80
2019-03-04T02:29:08.500Z,21.80
2019-03-04T02:31:41.507Z,21.80
2019-03-04T02:34:14.558Z,21.70
2019-03-04T02:36:47.280Z,21.70
2019-03-04T02:39:22.753Z,21.70
2019-03-04T02:41:59.594Z,21.70
2019-03-04T02:44:31.432Z,21.60
2019-03-04T02:47:04.767Z,21.60
2019-03-04T02:49:42.912Z,21.60
2019-03-04T02:52:12.441Z,21.60
2019-03-04T02:54:41.905Z,21.60
2019-03-04T02:57:19.443Z,21.60
2019-03-04T02:59:51.739Z,21.60
2019-03-04T03:02:25.062Z,21.60
2019-03-04T03:04:54.231Z,21.50
2019-03-04T03:07:27.560Z,21.60
2019-03-04T03:10:00.409Z,21.50
2019-03-04T03:12:31.310Z,21.50
2019-03-04T03:15:09.899Z,21.50
2019-03-04T03:17:35.121Z,21.50
2019-03-04T03:20:09.767Z,21.50
2019-03-04T03:22:43.101Z,21.50
2019-03-04T03:25:12.744Z,21.50
2019-03-04T03:27:44.317Z,21.50
2019-03-04T03:30:13.651Z,21.40
2019-03-04T03:32:45.521Z,21.50
2019-03-04T03:35:14.645Z,21.40
2019-03-04T03:37:45.071Z,21.40
2019-03-04T03:40:14.963Z,21.40
2019-03-04T03:42:45.490Z,21.40
2019-03-04T03:45:18.789Z,21.40
2019-03-04T03:47:58.810Z,21.40
2019-03-04T03:50:31.301Z,21.40
2019-03-04T03:53:16.616Z,21.40
2019-03-04T03:55:49.424Z,21.40
2019-03-04T03:58:40.294Z,21.30
2019-03-04T04:01:12.536Z,21.30
2019-03-04T04:04:04.404Z,21.30
2019-03-04T04:06:35.860Z,21.30
2019-03-04T04:09:12.429Z,21.30
2019-03-04T04:11:45.523Z,21.30
2019-03-04T04:14:16.372Z,21.40
2019-03-04T04:16:51.713Z,21.40
2019-03-04T04:19:23.565Z,21.50
2019-03-04T04:21:54.801Z,21.50
2019-03-04T04:24:48.451Z,21.60
2019-03-04T04:27:22.274Z,21.60
2019-03-04T04:29:59.370Z,21.50
2019-03-04T04:32:25.985Z,21.50
2019-03-04T04:34:59.670Z,21.40
2019-03-04T04:37:30.820Z,21.40
2019-03-04T04:40:08.409Z,21.40
2019-03-04T04:42:41.980Z,21.40
2019-03-04T04:45:13.618Z,21.40
2019-03-04T04:47:42.949Z,21.40
2019-03-04T04:50:13.473Z,21.30
2019-03-04T04:52:45.882Z,21.30
2019-03-04T04:55:20.709Z,21.20
2019-03-04T04:57:53.017Z,21.20
2019-03-04T05:00:22.595Z,21.20
2019-03-04T05:03:03.622Z,21.20
2019-03-04T05:05:34.935Z,21.10
2019-03-04T05:08:07.097Z,21.10
2019-03-04T05:10:38.530Z,21.10
2019-03-04T05:13:15.682Z,21.10
2019-03-04T05:15:47.341Z,21.10
2019-03-04T05:18:24.500Z,21.10
2019-03-04T05:20:55.418Z,21.10
2019-03-04T05:23:28.407Z,21.00
2019-03-04T05:25:58.791Z,21.00
2019-03-04T05:28:29.641Z,21.00
2019-03-04T05:31:01.562Z,21.00
2019-03-04T05:33:34.529Z,21.00
2019-03-04T05:36:11.233Z,21.00
2019-03-04T05:38:40.906Z,21.00
2019-03-04T05:41:24.048Z,21.00
2019-03-04T05:43:57.837Z,21.00
2019-03-04T05:46:27.061Z,21.10
2019-03-04T05:48:59.095Z,21.00
2019-03-04T05:51:30.446Z,21.00
2019-03-04T05:54:01.529Z,21.00
2019-03-04T05:56:34.034Z,21.00
2019-03-04T05:59:19.389Z,21.00
2019-03-04T06:01:47.022Z,21.00
2019-03-04T06:04:16.553Z,20.90
2019-03-04T06:06:54.570Z,20.90
2019-03-04T06:09:29.264Z,20.90
2019-03-04T06:12:01.907Z,20.80
2019-03-04T06:14:36.348Z,20.80
2019-03-04T06:17:06.481Z,20.80
2019-03-04T06:19:37.376Z,20.80
2019-03-04T06:22:09.823Z,20.80
2019-03-04T06:24:51.322Z,20.80
2019-03-04T06:27:37.915Z,20.80
2019-03-04T06:30:32.151Z,20.80
2019-03-04T06:33:05.361Z,20.80
2019-03-04T06:35:37.173Z,20.70
2019-03-04T06:38:12.600Z,20.70
2019-03-04T06:40:45.726Z,20.70
2019-03-04T06:43:20.446Z,20.70
2019-03-04T06:45:59.884Z,20.70
2019-03-04T06:48:32.084Z,20.70
2019-03-04T06:51:04.394Z,20.70
2019-03-04T06:54:00.870Z,20.70
2019-03-04T06:56:38.125Z,20.70
2019-03-04T06:59:34.184Z,20.60
2019-03-04T07:02:11.936Z,20.60
2019-03-04T07:05:04.662Z,20.60
2019-03-04T07:07:40.641Z,20.60
2019-03-04T07:10:10.730Z,20.60
2019-03-04T07:12:42.081Z,20.60
2019-03-04T07:15:15.356Z,20.50
2019-03-04T07:17:49.238Z,20.60
2019-03-04T07:20:27.513Z,20.50
2019-03-04T07:23:04.844Z,20.50
2019-03-04T07:25:34.827Z,20.50
2019-03-04T07:28:04.295Z,20.50
2019-03-04T07:30:36.951Z,20.50
2019-03-04T07:33:10.417Z,20.50
2019-03-04T07:35:41.236Z,20.50
2019-03-04T07:38:31.400Z,20.60
2019-03-04T07:41:01.397Z,20.60
2019-03-04T07:43:40.945Z,20.60
2019-03-04T07:46:11.373Z,20.60
2019-03-04T07:48:42.119Z,20.60
2019-03-04T07:51:16.548Z,20.60
2019-03-04T07:53:46.983Z,20.50
2019-03-04T07:56:19.629Z,20.50
2019-03-04T07:58:51.278Z,20.50
2019-03-04T08:01:23.738Z,20.50
2019-03-04T08:03:54.883Z,20.50
2019-03-04T08:06:25.994Z,20.50
2019-03-04T08:09:39.262Z,20.50
2019-03-04T08:13:06.020Z,20.50
2019-03-04T08:15:41.160Z,20.50
2019-03-04T08:18:15.669Z,20.40
2019-03-04T08:20:47.657Z,20.40
2019-03-04T08:23:18.317Z,20.40
2019-03-04T08:28:29.878Z,20.40
2019-03-04T08:30:59.129Z,20.50
2019-03-04T08:33:30.423Z,20.60
2019-03-04T08:36:00.827Z,20.80
2019-03-04T08:38:38.994Z,20.90
2019-03-04T08:41:09.183Z,21.10
2019-03-04T08:43:38.017Z,21.30
2019-03-04T08:46:25.009Z,21.50
2019-03-04T08:49:01.321Z,21.70
2019-03-04T08:51:32.471Z,22.00
2019-03-04T08:54:04.049Z,22.10
2019-03-04T08:56:33.185Z,22.20
2019-03-04T08:59:11.973Z,22.30
2019-03-04T09:01:52.276Z,22.30
2019-03-04T09:04:21.311Z,22.30
2019-03-04T09:06:50.292Z,22.30
2019-03-04T09:09:19.198Z,22.30
2019-03-04T09:11:48.896Z,22.30
2019-03-04T09:14:18.213Z,22.40
2019-03-04T09:16:49.733Z,22.50
2019-03-04T09:19:18.838Z,22.70
2019-03-04T09:21:49.202Z,22.80
2019-03-04T09:24:18.960Z,22.90
2019-03-04T09:26:51.237Z,23.00
2019-03-04T09:29:20.796Z,23.10
2019-03-04T09:31:52.888Z,23.20
2019-03-04T09:34:27.197Z,23.30
2019-03-04T09:36:55.986Z,23.30
2019-03-04T09:39:32.299Z,23.20
2019-03-04T09:42:13.984Z,23.20
2019-03-04T09:44:46.144Z,23.10
2019-03-04T09:47:16.839Z,23.00
2019-03-04T09:49:47.062Z,23.00
2019-03-04T09:52:15.886Z,22.90
2019-03-04T09:54:45.701Z,22.80
2019-03-04T09:57:16.830Z,22.70
2019-03-04T09:59:47.034Z,22.70
2019-03-04T10:02:29.867Z,22.70
2019-03-04T10:05:13.386Z,22.60
2019-03-04T10:08:01.169Z,22.50
2019-03-04T10:11:14.793Z,22.40
2019-03-04T10:14:33.664Z,22.40
2019-03-04T10:17:37.399Z,22.30
2019-03-04T10:20:36.173Z,22.30
2019-03-04T10:23:22.204Z,22.30
2019-03-04T10:26:07.647Z,22.30
2019-03-04T10:29:42.035Z,22.40
2019-03-04T10:32:35.255Z,22.60
2019-03-04T10:35:47.199Z,22.80
2019-03-04T10:38:54.900Z,22.90
2019-03-04T10:42:08.501Z,23.00
2019-03-04T10:45:18.483Z,23.10
2019-03-04T10:47:48.508Z,23.10
2019-03-04T10:50:24.976Z,23.10
2019-03-04T10:52:54.583Z,23.00
2019-03-04T10:55:23.938Z,23.00
2019-03-04T10:57:52.843Z,22.90
2019-03-04T11:00:21.858Z,22.90
2019-03-04T11:02:52.418Z,22.90
2019-03-04T11:05:21.335Z,22.80
2019-03-04T11:07:53.633Z,22.80
2019-03-04T11:10:25.777Z,22.70
2019-03-04T11:12:54.961Z,22.70
2019-03-04T11:15:25.382Z,22.70
2019-03-04T11:17:54.972Z,22.70
2019-03-04T11:20:50.204Z,22.60
2019-03-04T11:23:15.151Z,22.60
2019-03-04T11:25:45.374Z,22.60
2019-03-04T11:28:26.880Z,22.60
2019-03-04T11:30:56.162Z,22.70
2019-03-04T11:33:27.238Z,22.60
2019-03-04T11:36:02.708Z,22.60
2019-03-04T11:38:34.046Z,22.60
2019-03-04T11:41:11.231Z,22.60
2019-03-04T11:43:47.554Z,22.70
2019-03-04T11:46:18.186Z,22.60
2019-03-04T11:48:52.182Z,22.60
2019-03-04T11:51:22.062Z,22.50
2019-03-04T11:53:51.551Z,22.50
2019-03-04T11:56:20.833Z,22.50
2019-03-04T11:58:49.934Z,22.40
2019-03-04T12:01:36.739Z,22.40
2019-03-04T12:04:06.305Z,22.40
2019-03-04T12:06:44.829Z,22.40
2019-03-04T12:09:19.365Z,22.40
2019-03-04T12:11:49.558Z,22.40
2019-03-04T12:14:18.344Z,22.40
2019-03-04T12:16:50.124Z,22.30
2019-03-04T12:19:19.518Z,22.30
2019-03-04T12:21:48.884Z,22.30
2019-03-04T12:24:21.620Z,22.30
2019-03-04T12:26:52.543Z,22.30
2019-03-04T12:29:21.451Z,22.30
2019-03-04T12:32:09.348Z,22.30
2019-03-04T12:34:38.239Z,22.30
2019-03-04T12:37:08.056Z,22.30
2019-03-04T12:39:40.921Z,22.30
2019-03-04T12:42:09.829Z,22.30
2019-03-04T12:44:45.199Z,22.30
2019-03-04T12:47:16.499Z,22.30
2019-03-04T12:49:49.659Z,22.30
2019-03-04T12:52:23.352Z,22.30
2019-03-04T12:54:59.674Z,22.20
2019-03-04T12:57:31.838Z,22.30
2019-03-04T13:00:07.464Z,22.30
2019-03-04T13:02:42.471Z,22.30
2019-03-04T13:05:12.104Z,22.30
2019-03-04T13:07:41.640Z,22.30
2019-03-04T13:10:12.317Z,22.30
2019-03-04T13:12:45.604Z,22.30
2019-03-04T13:15:20.791Z,22.30
2019-03-04T13:17:50.085Z,22.30
2019-03-04T13:20:19.684Z,22.30
2019-03-04T13:22:49.356Z,22.40
2019-03-04T13:25:21.495Z,22.50
2019-03-04T13:27:54.382Z,22.60
2019-03-04T13:30:23.460Z,22.80
2019-03-04T13:32:52.817Z,23.00
2019-03-04T13:35:26.061Z,23.10
2019-03-04T13:37:56.760Z,23.20
2019-03-04T13:40:26.350Z,23.30
2019-03-04T13:42:58.065Z,23.40
2019-03-04T13:45:31.135Z,23.50
2019-03-04T13:48:00.183Z,23.60
2019-03-04T13:50:30.007Z,23.70
2019-03-04T13:52:58.894Z,23.80
2019-03-04T13:55:28.971Z,23.90
2019-03-04T13:58:01.887Z,24.00
2019-03-04T14:00:32.759Z,24.00
2019-03-04T14:03:01.992Z,24.00
2019-03-04T14:05:42.513Z,24.00
2019-03-04T14:08:03.128Z,24.00
2019-03-04T14:10:36.305Z,24.00
2019-03-04T14:13:05.579Z,24.10
2019-03-04T14:15:36.746Z,24.10
2019-03-04T14:18:06.482Z,24.00
2019-03-04T14:20:36.572Z,24.10
2019-03-04T14:23:05.903Z,24.00
2019-03-04T14:25:37.168Z,24.00
2019-03-04T14:28:13.827Z,24.00
2019-03-04T14:30:43.700Z,24.00
2019-03-04T14:33:19.495Z,24.00
2019-03-04T14:35:48.645Z,23.90
2019-03-04T14:38:18.388Z,23.90
2019-03-04T14:40:47.992Z,23.80
2019-03-04T14:43:17.256Z,23.70
2019-03-04T14:45:54.372Z,23.60
2019-03-04T14:48:23.955Z,23.50
2019-03-04T14:50:53.453Z,23.40
2019-03-04T14:53:23.483Z,23.40
2019-03-04T14:55:53.687Z,23.30
2019-03-04T14:58:35.605Z,23.20
2019-03-04T15:01:09.124Z,23.10
2019-03-04T15:03:36.154Z,23.10
2019-03-04T15:06:08.911Z,23.00
2019-03-04T15:08:42.990Z,23.00
2019-03-04T15:11:14.143Z,22.90
2019-03-04T15:13:46.168Z,22.90
2019-03-04T15:16:21.436Z,22.90
2019-03-04T15:18:54.411Z,22.90
2019-03-04T15:21:23.375Z,22.90
2019-03-04T15:23:52.357Z,22.80
2019-03-04T15:26:23.801Z,22.80
2019-03-04T15:28:52.624Z,22.80
2019-03-04T15:31:21.612Z,22.70
2019-03-04T15:33:54.049Z,22.80
2019-03-04T15:36:23.258Z,22.70
2019-03-04T15:38:55.146Z,22.70
